Time;durP1;ratioP1;P1;durP2;ratioP2;P2;SDS_P1;SDS_P2;PMS_P1;PMS_P2;Temp;Humidity;BMP_temperature;BMP_pressure;BME280_temperature;BME280_humidity;BME280_pressure;Samples;Min_cycle;Max_cycle;Signal;HPM_P1;HPM_P2
2023/01/02 00:01:24;;;;;;;12.20;8.65;;;;;;;5.72;100.00;62587.22;5055598;28;20240;-80
2023/01/02 00:03:54;;;;;;;13.45;6.93;;;;;;;5.79;100.00;62598.97;5071093;28;20459;-80
2023/01/02 00:06:21;;;;;;;6.00;4.72;;;;;;;5.68;100.00;62583.09;5069627;28;20213;-80
2023/01/02 00:08:48;;;;;;;4.38;3.97;;;;;;;5.76;100.00;62596.38;5057171;28;20327;-81
2023/01/02 00:11:15;;;;;;;4.63;3.90;;;;;;;5.79;100.00;62593.91;5060677;28;20228;-80
2023/01/02 00:13:43;;;;;;;4.57;3.40;;;;;;;5.89;100.00;62609.28;5069258;28;20231;-80
2023/01/02 00:16:11;;;;;;;6.68;3.67;;;;;;;5.88;100.00;62608.25;5055911;28;20271;-79
2023/01/02 00:18:38;;;;;;;5.03;3.53;;;;;;;5.88;100.00;62603.19;5048623;28;20210;-81
2023/01/02 00:21:05;;;;;;;3.70;3.40;;;;;;;5.88;100.00;62608.75;5068547;28;20217;-79
2023/01/02 00:23:33;;;;;;;3.58;2.95;;;;;;;5.93;100.00;62610.88;5068312;28;20193;-82
2023/01/02 00:26:01;;;;;;;3.90;3.15;;;;;;;5.95;100.00;62609.91;5064303;28;20446;-80
2023/01/02 00:28:28;;;;;;;4.03;3.08;;;;;;;5.90;100.00;62605.28;5056251;28;20233;-80
2023/01/02 00:30:57;;;;;;;3.17;2.92;;;;;;;5.95;100.00;62609.91;5069144;28;20553;-79
2023/01/02 00:33:24;;;;;;;3.35;3.15;;;;;;;5.96;100.00;62613.44;5027314;28;20198;-80
2023/01/02 00:35:51;;;;;;;4.47;3.53;;;;;;;5.98;100.00;62613.00;5038883;28;20224;-79
2023/01/02 00:38:18;;;;;;;3.22;2.95;;;;;;;6.04;100.00;62616.66;5060394;28;20201;-79
2023/01/02 00:40:45;;;;;;;5.60;4.38;;;;;;;6.12;100.00;62627.41;5069975;28;20221;-79
2023/01/02 00:43:12;;;;;;;5.15;4.47;;;;;;;5.92;100.00;62607.31;5051668;28;20265;-80
2023/01/02 00:45:39;;;;;;;8.13;4.85;;;;;;;5.93;100.00;62608.34;5057773;28;20198;-80
2023/01/02 00:48:08;;;;;;;6.25;4.72;;;;;;;6.04;100.00;62621.72;5047110;28;20372;-80
2023/01/02 00:50:35;;;;;;;10.07;4.40;;;;;;;5.97;100.00;62612.47;5051561;28;20205;-79
2023/01/02 00:53:02;;;;;;;7.60;5.05;;;;;;;5.90;100.00;62604.75;5067139;28;20209;-80
2023/01/02 00:55:29;;;;;;;8.15;7.15;;;;;;;5.94;100.00;62613.94;5047662;28;20202;-80
2023/01/02 00:57:56;;;;;;;11.90;8.88;;;;;;;5.92;100.00;62607.31;5048518;28;20213;-79
2023/01/02 01:00:23;;;;;;;13.57;9.13;;;;;;;5.88;100.00;62600.69;5046507;28;20205;-80
2023/01/02 01:02:51;;;;;;;18.90;11.00;;;;;;;5.78;100.00;62595.41;5047085;28;20422;-80
2023/01/02 01:05:19;;;;;;;20.98;11.95;;;;;;;5.85;100.00;62598.09;5049834;28;20194;-80
2023/01/02 01:07:46;;;;;;;20.67;12.90;;;;;;;5.65;100.00;62582.00;5054568;28;20248;-80
2023/01/02 01:10:13;;;;;;;16.42;10.82;;;;;;;5.82;100.00;62597.53;5057209;28;20264;-80
2023/01/02 01:12:40;;;;;;;18.92;11.77;;;;;;;5.90;100.00;62607.28;5048835;28;20365;-80
2023/01/02 01:15:08;;;;;;;17.05;11.18;;;;;;;5.85;100.00;62602.63;5054286;28;20230;-80
2023/01/02 01:17:35;;;;;;;18.50;10.70;;;;;;;5.84;100.00;62604.66;5048547;28;20218;-80
2023/01/02 01:20:01;;;;;;;20.02;11.27;;;;;;;5.74;100.00;62588.75;5065640;28;20251;-79
2023/01/02 01:22:30;;;;;;;25.73;14.30;;;;;;;5.73;100.00;62590.25;5048208;28;20224;-80
2023/01/02 01:24:57;;;;;;;22.10;12.68;;;;;;;5.68;100.00;62582.56;5049524;28;20296;-79
2023/01/02 01:27:24;;;;;;;22.17;13.77;;;;;;;5.60;100.00;62577.38;5047680;28;20233;-81
2023/01/02 01:29:51;;;;;;;23.58;13.75;;;;;;;5.46;100.00;62557.38;5049590;28;20201;-80
2023/01/02 01:32:18;;;;;;;21.42;12.90;;;;;;;5.49;100.00;62563.50;5054281;28;20217;-81
2023/01/02 01:34:46;;;;;;;20.63;11.95;;;;;;;5.40;100.00;62559.28;5066723;28;20253;-79
2023/01/02 01:37:13;;;;;;;19.85;11.38;;;;;;;5.37;100.00;62553.66;5051615;28;20281;-80
2023/01/02 01:39:42;;;;;;;19.30;11.88;;;;;;;5.37;100.00;62553.16;5047479;28;20206;-81
2023/01/02 01:42:11;;;;;;;26.92;14.38;;;;;;;5.31;100.00;62547.50;5047159;28;20253;-79
2023/01/02 01:44:43;;;;;;;21.00;13.02;;;;;;;5.29;100.00;62547.97;5048001;28;20218;-80
2023/01/02 01:47:17;;;;;;;23.33;13.13;;;;;;;5.28;100.00;62544.41;5057533;28;20229;-80
2023/01/02 01:49:46;;;;;;;23.42;14.02;;;;;;;5.23;100.00;62539.25;5047075;28;20232;-79
2023/01/02 01:52:16;;;;;;;24.63;14.75;;;;;;;5.19;100.00;62542.72;5067222;28;20229;-79
2023/01/02 01:54:48;;;;;;;28.48;16.60;;;;;;;5.11;100.00;62524.38;5066959;28;20207;-80
2023/01/02 01:57:20;;;;;;;26.05;17.00;;;;;;;5.02;100.00;62517.63;5056139;28;20241;-80
2023/01/02 01:59:49;;;;;;;29.83;16.00;;;;;;;4.99;100.00;62511.50;5057427;28;20211;-82
2023/01/02 02:02:17;;;;;;;26.30;15.75;;;;;;;5.03;100.00;62518.13;5066948;28;20224;-80
2023/01/02 02:04:45;;;;;;;26.52;15.52;;;;;;;5.04;100.00;62514.63;5066520;28;20205;-80
2023/01/02 02:07:13;;;;;;;25.25;14.95;;;;;;;4.86;100.00;62501.16;5050208;28;20271;-81
2023/01/02 02:09:47;;;;;;;22.42;13.02;;;;;;;4.94;100.00;62511.38;5058755;28;20255;-80
2023/01/02 02:12:16;;;;;;;11.15;8.40;;;;;;;4.94;100.00;62508.88;5070878;28;20248;-79
2023/01/02 02:14:43;;;;;;;9.32;7.20;;;;;;;5.00;100.00;62512.53;5060980;28;20198;-80
2023/01/02 02:17:19;;;;;;;12.02;7.97;;;;;;;5.02;100.00;62512.56;5052437;28;20274;-82
2023/01/02 02:20:15;;;;;;;8.90;6.22;;;;;;;5.04;100.00;62521.69;5050281;28;20193;-79
2023/01/02 02:23:13;;;;;;;5.07;4.55;;;;;;;4.94;100.00;62506.34;5052030;28;20248;-80
2023/01/02 02:26:08;;;;;;;5.68;4.50;;;;;;;4.91;100.00;62508.81;5031187;28;20219;-79
2023/01/02 02:29:23;;;;;;;7.53;5.25;;;;;;;4.93;100.00;62505.31;5046403;28;20229;-79
2023/01/02 02:32:00;;;;;;;12.48;6.07;;;;;;;4.82;100.00;62496.50;5056472;28;20459;-79
2023/01/02 02:34:34;;;;;;;7.95;5.65;;;;;;;4.72;100.00;62486.75;5052006;28;20232;-80
2023/01/02 02:37:07;;;;;;;6.85;5.65;;;;;;;4.75;100.00;62487.31;5051323;28;20237;-80
2023/01/02 02:39:47;;;;;;;11.38;7.30;;;;;;;4.72;100.00;62484.75;5050201;28;20194;-80
2023/01/02 02:42:26;;;;;;;9.25;7.93;;;;;;;4.73;100.00;62485.75;5049991;28;20288;-80
2023/01/02 02:44:59;;;;;;;15.73;9.48;;;;;;;4.75;100.00;62489.81;5049636;28;20522;-80
2023/01/02 02:47:33;;;;;;;17.95;10.18;;;;;;;4.63;100.00;62475.47;5052241;28;20245;-80
2023/01/02 02:50:09;;;;;;;14.50;10.35;;;;;;;4.70;100.00;62480.16;5053479;28;20669;-79
2023/01/02 02:52:42;;;;;;;14.90;9.20;;;;;;;4.66;100.00;62480.56;5049312;28;20275;-80
2023/01/02 02:55:13;;;;;;;14.18;9.43;;;;;;;4.65;100.00;62479.53;5055242;28;20197;-80
2023/01/02 02:57:42;;;;;;;10.98;7.60;;;;;;;4.64;100.00;62478.50;5051474;28;20463;-82
2023/01/02 03:00:13;;;;;;;10.60;6.53;;;;;;;4.54;100.00;62471.25;5050061;28;20226;-80
2023/01/02 03:02:42;;;;;;;11.07;8.02;;;;;;;4.48;100.00;62462.56;5057128;28;20285;-80
2023/01/02 03:05:13;;;;;;;8.65;6.13;;;;;;;4.68;100.00;62482.63;5051504;28;20202;-79
2023/01/02 03:07:49;;;;;;;6.35;4.75;;;;;;;4.52;100.00;62466.16;5049205;28;20225;-80
2023/01/02 03:10:27;;;;;;;6.85;5.28;;;;;;;4.65;100.00;62474.50;5050237;28;20225;-81
2023/01/02 03:13:07;;;;;;;7.18;4.53;;;;;;;4.50;100.00;62461.56;5049234;28;20198;-78
2023/01/02 03:15:40;;;;;;;5.80;4.40;;;;;;;4.64;100.00;62478.50;5051681;28;20244;-79
2023/01/02 03:18:18;;;;;;;5.97;4.63;;;;;;;4.64;100.00;62478.50;5052930;28;20269;-79
2023/01/02 03:20:52;;;;;;;4.72;4.25;;;;;;;4.64;100.00;62479.00;5054734;28;20329;-78
2023/01/02 03:23:23;;;;;;;5.25;4.03;;;;;;;4.43;100.00;62454.38;5069655;28;20513;-80
2023/01/02 03:25:51;;;;;;;4.25;3.95;;;;;;;4.55;100.00;62464.19;5069314;28;20224;-80
2023/01/02 03:28:22;;;;;;;4.70;4.22;;;;;;;4.72;100.00;62481.69;5052707;28;20229;-79
2023/01/02 03:30:52;;;;;;;3.88;3.53;;;;;;;4.67;100.00;62479.06;5067909;28;20271;-80
2023/01/02 03:33:26;;;;;;;4.20;3.90;;;;;;;4.64;100.00;62478.50;5070951;28;20197;-80
2023/01/02 03:35:56;;;;;;;7.63;5.88;;;;;;;4.64;100.00;62476.00;5063906;28;20217;-80
2023/01/02 03:38:27;;;;;;;16.67;8.40;;;;;;;4.58;100.00;62469.81;5048720;28;20254;-80
2023/01/02 03:41:02;;;;;;;17.08;11.02;;;;;;;4.50;100.00;62464.59;5031096;28;20226;-81
2023/01/02 03:43:31;;;;;;;13.15;9.20;;;;;;;4.59;100.00;62473.38;5050446;28;20243;-80
2023/01/02 03:46:08;;;;;;;12.77;8.48;;;;;;;4.58;100.00;62469.81;5053356;28;20320;-80
2023/01/02 03:48:43;;;;;;;11.35;7.95;;;;;;;4.46;100.00;62463.00;5060445;28;20233;-79
2023/01/02 03:51:10;;;;;;;13.07;8.50;;;;;;;4.53;100.00;62464.66;5069197;28;20209;-80
2023/01/02 03:53:39;;;;;;;12.95;8.05;;;;;;;4.59;100.00;62473.38;5066179;28;21647;-80
2023/01/02 03:56:15;;;;;;;5.15;4.65;;;;;;;4.57;100.00;62474.31;5049855;28;20237;-79
2023/01/02 03:58:49;;;;;;;4.82;4.25;;;;;;;4.57;100.00;62469.28;5071476;28;20201;-80
2023/01/02 04:01:22;;;;;;;6.32;5.15;;;;;;;4.55;100.00;62467.25;5051690;28;20585;-80
2023/01/02 04:04:00;;;;;;;7.72;6.00;;;;;;;4.54;100.00;62468.19;5049331;28;20228;-80
2023/01/02 04:06:34;;;;;;;6.57;4.90;;;;;;;4.48;100.00;62460.03;5050145;28;20226;-79
2023/01/02 04:09:07;;;;;;;7.30;5.65;;;;;;;4.50;100.00;62461.56;5048905;28;20441;-82
2023/01/02 04:11:37;;;;;;;7.70;6.72;;;;;;;4.47;100.00;62458.47;5049913;28;20283;-81
2023/01/02 04:14:12;;;;;;;11.13;6.63;;;;;;;4.36;100.00;62447.69;5051527;28;20186;-80
2023/01/02 04:16:43;;;;;;;10.93;7.30;;;;;;;4.38;100.00;62449.72;5047244;28;20259;-81
2023/01/02 04:19:15;;;;;;;20.23;12.75;;;;;;;4.24;100.00;62434.81;5050713;28;20250;-81
2023/01/02 04:21:45;;;;;;;22.92;13.90;;;;;;;4.15;100.00;62428.06;5052196;28;20564;-79
2023/01/02 04:24:17;;;;;;;21.40;13.23;;;;;;;4.17;100.00;62430.13;5029087;28;20183;-80
2023/01/02 04:26:48;;;;;;;23.23;13.63;;;;;;;4.10;100.00;62418.41;5030183;28;20218;-80
2023/01/02 04:29:15;;;;;;;21.15;13.30;;;;;;;3.97;100.00;62410.06;5059785;28;20284;-80
2023/01/02 04:31:49;;;;;;;24.70;13.70;;;;;;;4.02;100.00;62412.19;5067958;28;20252;-80
2023/01/02 04:34:24;;;;;;;22.65;13.52;;;;;;;3.97;100.00;62409.56;5028491;28;20200;-79
2023/01/02 04:36:51;;;;;;;21.88;14.48;;;;;;;3.93;100.00;62408.47;5030075;28;20236;-80
2023/01/02 04:39:20;;;;;;;20.08;12.45;;;;;;;3.84;100.00;62389.16;5052936;28;20229;-81
2023/01/02 04:41:47;;;;;;;23.48;14.20;;;;;;;3.92;100.00;62402.41;5046577;28;20405;-80
2023/01/02 04:44:14;;;;;;;23.30;14.57;;;;;;;3.90;100.00;62402.84;5051304;28;20194;-79
2023/01/02 04:46:41;;;;;;;19.08;13.05;;;;;;;3.89;100.00;62398.81;5052932;28;20221;-79
2023/01/02 04:49:10;;;;;;;21.45;11.93;;;;;;;3.95;100.00;62404.97;5068678;28;20460;-80
2023/01/02 04:51:38;;;;;;;23.88;12.93;;;;;;;3.95;100.00;62405.47;5053727;28;20553;-79
2023/01/02 04:54:05;;;;;;;14.90;10.85;;;;;;;3.99;100.00;62409.59;5049552;28;20228;-80
2023/01/02 04:56:32;;;;;;;12.18;7.40;;;;;;;3.87;100.00;62394.22;5060759;28;20225;-81
2023/01/02 04:58:59;;;;;;;9.10;5.68;;;;;;;3.95;100.00;62407.50;5053812;28;20217;-81
2023/01/02 05:01:26;;;;;;;9.23;5.70;;;;;;;3.81;100.00;62390.56;5047646;28;20218;-81
2023/01/02 05:03:53;;;;;;;10.25;6.53;;;;;;;4.00;100.00;62418.19;5047890;28;20198;-79
2023/01/02 05:06:20;;;;;;;13.38;8.15;;;;;;;3.95;100.00;62410.03;5048276;28;20214;-80
2023/01/02 05:08:49;;;;;;;9.88;8.23;;;;;;;4.02;100.00;62412.19;5048570;28;20331;-80
2023/01/02 05:11:18;;;;;;;11.50;7.45;;;;;;;4.05;100.00;62412.75;5051329;28;20218;-81
2023/01/02 05:13:46;;;;;;;9.00;6.15;;;;;;;4.07;100.00;62415.31;5053541;28;20228;-80
2023/01/02 05:16:13;;;;;;;10.75;6.15;;;;;;;4.01;100.00;62411.66;5051345;28;20284;-80
2023/01/02 05:18:40;;;;;;;6.28;5.55;;;;;;;4.05;100.00;62413.28;5046953;28;20201;-81
2023/01/02 05:23:47;;;;;;;6.45;4.32;;;;;;;4.11;100.00;62421.94;5048768;28;20218;-80
2023/01/02 05:23:59;;;;;;;6.43;4.65;;;;;;;3.98;100.00;62410.59;5062814;28;20197;-80
2023/01/02 05:26:26;;;;;;;5.22;4.30;;;;;;;4.22;100.00;62435.28;5052869;28;20253;-81
2023/01/02 05:28:54;;;;;;;5.05;4.57;;;;;;;4.27;100.00;62437.91;5051900;28;20259;-80
2023/01/02 05:31:22;;;;;;;6.07;4.68;;;;;;;4.36;100.00;62447.16;5047471;28;20221;-82
2023/01/02 05:33:52;;;;;;;7.25;4.55;;;;;;;4.33;100.00;62444.59;5067396;28;20265;-80
2023/01/02 05:36:19;;;;;;;8.80;5.60;;;;;;;4.28;100.00;62441.97;5064313;28;20264;-81
2023/01/02 05:38:45;;;;;;;11.57;6.68;;;;;;;4.40;100.00;62456.31;5067528;28;20205;-81
2023/01/02 05:41:14;;;;;;;8.98;6.80;;;;;;;4.43;100.00;62457.41;5070410;28;20229;-81
2023/01/02 05:43:42;;;;;;;9.23;5.90;;;;;;;4.46;100.00;62460.50;5072887;28;20193;-81
2023/01/02 05:46:11;;;;;;;14.52;8.10;;;;;;;4.45;100.00;62456.94;5053716;28;20218;-80
2023/01/02 05:48:38;;;;;;;14.98;8.10;;;;;;;4.25;100.00;62435.84;5052517;28;20197;-80
2023/01/02 05:51:07;;;;;;;15.48;9.65;;;;;;;4.20;100.00;62433.72;5052704;28;20222;-80
2023/01/02 05:53:35;;;;;;;14.30;10.32;;;;;;;4.52;100.00;62466.16;5052831;28;20214;-80
2023/01/02 05:56:06;;;;;;;12.88;9.63;;;;;;;4.43;100.00;62454.88;5062993;28;20236;-80
2023/01/02 05:58:37;;;;;;;23.98;9.75;;;;;;;4.57;100.00;62469.28;5071508;28;20208;-79
2023/01/02 06:01:09;;;;;;;16.00;10.23;;;;;;;4.63;100.00;62477.47;5063382;28;20252;-81
2023/01/02 06:03:36;;;;;;;10.32;7.60;;;;;;;4.69;100.00;62484.16;5043350;28;20265;-81
2023/01/02 06:06:05;;;;;;;10.45;7.22;;;;;;;4.62;100.00;62476.94;5057502;28;20638;-80
2023/01/02 06:08:32;;;;;;;12.63;7.13;;;;;;;4.63;100.00;62477.47;5052195;28;20580;-80
2023/01/02 06:11:00;;;;;;;12.27;8.50;;;;;;;4.60;100.00;62469.88;5052978;28;20230;-81
2023/01/02 06:13:29;;;;;;;13.75;9.90;;;;;;;4.66;100.00;62475.50;5054240;28;20202;-82
2023/01/02 06:15:59;;;;;;;13.32;8.20;;;;;;;4.59;100.00;62470.84;5052712;28;20374;-81
2023/01/02 06:18:27;;;;;;;14.55;9.45;;;;;;;4.76;100.00;62490.88;5050620;28;20221;-80
2023/01/02 06:20:58;;;;;;;11.23;8.45;;;;;;;4.67;100.00;62479.59;5050576;28;20229;-79
2023/01/02 06:23:26;;;;;;;21.40;12.30;;;;;;;4.74;100.00;62488.81;5052395;28;20201;-81
2023/01/02 06:25:52;;;;;;;15.57;10.60;;;;;;;4.71;100.00;62481.16;5051661;28;20222;-78
2023/01/02 06:28:20;;;;;;;14.52;8.90;;;;;;;4.30;100.00;62438.47;5049137;28;20201;-79
2023/01/02 06:30:47;;;;;;;15.30;10.50;;;;;;;4.17;100.00;62425.09;5051766;28;20276;-79
2023/01/02 06:33:18;;;;;;;21.05;12.27;;;;;;;4.20;100.00;62430.69;5049754;28;20261;-79
2023/01/02 06:35:45;;;;;;;19.58;12.10;;;;;;;4.22;100.00;62430.22;5049924;28;20237;-80
2023/01/02 06:38:12;;;;;;;19.52;13.70;;;;;;;4.23;100.00;62431.78;5053894;28;20190;-81
2023/01/02 06:40:39;;;;;;;23.55;15.48;;;;;;;4.07;100.00;62420.34;5048703;28;20202;-81
2023/01/02 06:43:06;;;;;;;22.50;13.60;;;;;;;4.01;100.00;62408.63;5053006;28;20282;-79
2023/01/02 06:45:33;;;;;;;25.38;15.32;;;;;;;4.08;100.00;62420.88;5050547;28;20204;-80
2023/01/02 06:48:00;;;;;;;29.02;15.90;;;;;;;4.13;100.00;62423.50;5052024;28;20204;-81
2023/01/02 06:50:28;;;;;;;26.67;16.95;;;;;;;3.93;100.00;62407.97;5049368;28;20288;-79
2023/01/02 06:52:55;;;;;;;30.70;17.40;;;;;;;4.12;100.00;62420.47;5048253;28;20204;-81
2023/01/02 06:55:22;;;;;;;25.77;16.48;;;;;;;4.25;100.00;62436.34;5048580;28;20229;-81
2023/01/02 06:57:49;;;;;;;30.17;16.63;;;;;;;4.24;100.00;62437.34;5047555;28;20247;-81
2023/01/02 07:00:17;;;;;;;23.95;16.55;;;;;;;4.07;100.00;62415.31;5053209;28;20240;-81
2023/01/02 07:02:44;;;;;;;27.33;16.38;;;;;;;4.42;100.00;62453.84;5062819;28;20225;-81
2023/01/02 07:05:11;;;;;;;24.25;16.13;;;;;;;4.40;100.00;62453.81;5051655;28;20248;-83
2023/01/02 07:07:40;;;;;;;26.63;15.13;;;;;;;4.37;100.00;62451.22;5048720;28;20285;-79
2023/01/02 07:10:07;;;;;;;29.35;16.92;;;;;;;4.43;100.00;62459.94;5048151;28;20230;-80
2023/01/02 07:12:36;;;;;;;24.38;16.27;;;;;;;4.30;100.00;62440.97;5048819;28;20222;-79
2023/01/02 07:15:04;;;;;;;32.45;18.20;;;;;;;4.01;100.00;62416.19;5050421;28;20229;-81
2023/01/02 07:17:32;;;;;;;24.30;16.98;;;;;;;4.25;100.00;62433.31;5060367;28;20218;-81
2023/01/02 07:19:59;;;;;;;26.60;17.08;;;;;;;4.54;100.00;62468.19;5053244;28;20209;-78
2023/01/02 07:22:27;;;;;;;28.27;18.55;;;;;;;4.93;100.00;62505.84;5049689;28;20222;-79
2023/01/02 07:24:55;;;;;;;30.08;18.85;;;;;;;5.12;100.00;62527.94;5048483;28;20398;-81
2023/01/02 07:27:22;;;;;;;28.23;18.83;;;;;;;5.23;100.00;62536.22;5048972;28;20460;-81
2023/01/02 07:29:49;;;;;;;26.40;16.23;;;;;;;5.34;100.00;62550.59;5056734;28;20394;-79
2023/01/02 07:32:16;;;;;;;22.92;16.30;;;;;;;5.34;100.00;62545.53;5050576;28;20232;-80
2023/01/02 07:34:43;;;;;;;23.33;16.27;;;;;;;5.33;100.00;62544.50;5052980;28;20198;-79
2023/01/02 07:37:10;;;;;;;30.35;17.67;;;;;;;5.18;100.00;62534.09;5049549;28;20248;-80
2023/01/02 07:39:37;;;;;;;33.67;17.50;;;;;;;5.13;100.00;62528.94;5053127;28;20201;-81
2023/01/02 07:42:08;;;;;;;25.35;15.93;;;;;;;5.09;100.00;62524.81;5053910;28;20231;-80
2023/01/02 07:44:35;;;;;;;21.95;13.68;;;;;;;5.05;100.00;62520.19;5050569;28;20202;-80
2023/01/02 07:47:02;;;;;;;21.40;14.80;;;;;;;5.06;100.00;62516.69;5060688;28;20218;-80
2023/01/02 07:49:29;;;;;;;22.67;14.25;;;;;;;5.14;100.00;62530.00;5054432;28;20252;-80
2023/01/02 07:51:56;;;;;;;21.38;13.85;;;;;;;5.09;100.00;62521.81;5049384;28;20230;-80
2023/01/02 07:54:26;;;;;;;21.77;14.43;;;;;;;5.37;100.00;62556.19;5060391;28;20221;-79
2023/01/02 07:56:53;;;;;;;22.77;15.18;;;;;;;5.35;100.00;62551.59;5071169;28;20227;-81
2023/01/02 07:59:22;;;;;;;21.08;14.63;;;;;;;5.20;100.00;62533.13;5059418;28;20308;-80
2023/01/02 08:01:48;;;;;;;23.73;14.93;;;;;;;5.20;100.00;62531.13;5050479;28;20218;-80
2023/01/02 08:04:16;;;;;;;26.40;16.42;;;;;;;4.92;100.00;62504.81;5066056;28;20471;-82
2023/01/02 08:06:42;;;;;;;23.63;15.60;;;;;;;5.09;100.00;62524.31;5047679;28;20218;-81
2023/01/02 08:09:10;;;;;;;23.00;15.07;;;;;;;5.33;100.00;62547.03;5049225;28;20233;-81
2023/01/02 08:11:37;;;;;;;23.05;15.02;;;;;;;5.47;100.00;62558.91;5048776;28;20242;-81
2023/01/02 08:14:04;;;;;;;25.10;16.70;;;;;;;5.58;100.00;62574.78;5049404;28;20495;-81
2023/01/02 08:16:33;;;;;;;26.02;16.75;;;;;;;5.59;100.00;62580.88;5048376;28;20224;-79
2023/01/02 08:18:59;;;;;;;24.02;16.25;;;;;;;5.59;100.00;62576.34;5049086;28;20202;-81
2023/01/02 08:21:27;;;;;;;28.27;17.23;;;;;;;5.40;100.00;62558.78;5048998;28;20229;-81
2023/01/02 08:23:55;;;;;;;30.25;18.05;;;;;;;5.65;100.00;62582.53;5050877;28;20221;-81
2023/01/02 08:26:24;;;;;;;27.52;18.60;;;;;;;5.86;100.00;62601.13;5054140;28;20377;-80
2023/01/02 08:28:51;;;;;;;27.00;18.40;;;;;;;5.80;100.00;62595.44;5053307;28;20273;-80
2023/01/02 08:31:22;;;;;;;27.45;18.90;;;;;;;5.77;100.00;62594.88;5050601;28;20233;-80
2023/01/02 08:33:51;;;;;;;31.08;18.23;;;;;;;5.74;100.00;62594.31;5049872;28;20194;-80
2023/01/02 08:36:20;;;;;;;28.05;18.92;;;;;;;6.07;100.00;62625.31;5051940;28;20226;-80
2023/01/02 08:38:47;;;;;;;31.95;19.73;;;;;;;6.22;100.00;62640.78;5049412;28;20202;-80
2023/01/02 08:41:30;;;;;;;26.15;18.67;;;;;;;6.49;100.00;62670.63;5061508;28;20217;-83
2023/01/02 08:44:07;;;;;;;28.77;18.45;;;;;;;6.38;100.00;62651.69;5060392;28;20186;-81
2023/01/02 08:46:35;;;;;;;26.48;18.63;;;;;;;6.26;100.00;62641.84;5038573;28;20236;-81
2023/01/02 08:51:39;;;;;;;30.83;19.33;;;;;;;6.66;100.00;62686.13;5021900;26;20226;-81
2023/01/02 08:54:06;;;;;;;29.88;19.30;;;;;;;6.65;100.00;62685.13;5028461;28;20241;-80
2023/01/02 08:56:34;;;;;;;40.78;20.30;;;;;;;6.79;100.00;62697.03;5032857;28;20218;-80
2023/01/02 08:59:04;;;;;;;27.85;19.35;;;;;;;6.95;100.00;62718.56;5031030;28;20234;-81
2023/01/02 09:01:33;;;;;;;30.80;19.27;;;;;;;7.09;100.00;62727.47;5030213;28;20246;-82
2023/01/02 09:04:00;;;;;;;29.80;19.52;;;;;;;7.13;100.00;62734.09;5030572;28;20203;-80
2023/01/02 09:06:30;;;;;;;32.58;20.33;;;;;;;7.23;100.00;62741.88;5031011;28;20222;-80
2023/01/02 09:09:00;;;;;;;35.90;20.90;;;;;;;7.24;100.00;62742.94;5035531;28;20202;-80
2023/01/02 09:11:32;;;;;;;30.27;20.08;;;;;;;7.34;100.00;62755.78;5030904;28;20297;-81
2023/01/02 09:14:01;;;;;;;32.35;21.70;;;;;;;7.62;100.00;62784.69;5016308;28;20207;-80
2023/01/02 09:16:28;;;;;;;29.90;18.73;;;;;;;7.73;100.00;62793.50;5028107;28;20232;-81
2023/01/02 09:19:01;;;;;;;31.95;19.40;;;;;;;7.86;100.00;62808.94;5031490;28;20221;-83
2023/01/02 09:21:30;;;;;;;32.63;21.92;;;;;;;7.63;100.00;62785.19;5029662;28;20219;-81
2023/01/02 09:23:59;;;;;;;34.03;21.10;;;;;;;7.52;100.00;62774.38;5029026;28;20202;-82
2023/01/02 09:26:26;;;;;;;32.53;21.35;;;;;;;7.62;100.00;62782.16;5031713;28;20257;-80
2023/01/02 09:28:53;;;;;;;34.13;21.70;;;;;;;7.86;100.00;62808.94;5029549;28;20431;-81
2023/01/02 09:31:21;;;;;;;34.13;21.60;;;;;;;8.11;100.00;62829.69;5030450;28;20273;-80
2023/01/02 09:33:49;;;;;;;36.20;21.45;;;;;;;8.10;100.00;62836.25;5028546;28;20241;-80
2023/01/02 09:36:18;;;;;;;34.22;21.00;;;;;;;8.06;100.00;62829.59;5029397;28;20286;-80
2023/01/02 09:38:52;;;;;;;32.55;21.05;;;;;;;8.21;100.00;62848.13;5029892;28;20199;-81
2023/01/02 09:41:28;;;;;;;35.17;21.80;;;;;;;8.41;100.00;62862.69;5029040;28;20253;-81
2023/01/02 09:44:00;;;;;;;30.05;20.05;;;;;;;8.47;100.00;62871.97;5027740;28;20260;-80
2023/01/02 09:46:35;;;;;;;33.88;22.42;;;;;;;8.55;100.00;62879.69;5023242;28;20291;-82
2023/01/02 09:49:02;;;;;;;32.53;21.92;;;;;;;8.76;100.00;62901.94;5015698;28;20204;-81
2023/01/02 09:51:31;;;;;;;34.10;21.65;;;;;;;8.97;100.00;62920.56;5027948;28;20256;-81
2023/01/02 09:53:58;;;;;;;38.72;22.90;;;;;;;9.09;100.00;62935.50;5032685;28;20266;-81
2023/01/02 09:56:33;;;;;;;31.27;20.98;;;;;;;9.37;100.00;62967.00;5029190;28;20467;-80
2023/01/02 09:59:06;;;;;;;33.17;22.35;;;;;;;9.49;97.68;62973.81;5031106;28;20194;-81
2023/01/02 10:01:39;;;;;;;32.58;22.30;;;;;;;9.33;97.77;62958.31;5029980;28;20219;-81
2023/01/02 10:04:18;;;;;;;33.30;20.42;;;;;;;9.57;97.72;62982.59;5029177;28;20588;-80
2023/01/02 10:06:54;;;;;;;31.00;20.60;;;;;;;9.27;96.40;62952.09;5030455;28;20229;-79
2023/01/02 10:09:27;;;;;;;32.60;21.02;;;;;;;9.40;97.47;62964.50;5029949;28;20249;-81
2023/01/02 10:12:09;;;;;;;32.65;21.25;;;;;;;9.29;96.66;62951.63;5032119;28;20234;-83
2023/01/02 10:14:52;;;;;;;33.15;20.73;;;;;;;9.53;95.82;62980.47;5039023;28;20262;-82
2023/01/02 10:17:23;;;;;;;27.55;19.65;;;;;;;9.61;94.90;62989.25;5031742;28;20287;-82
2023/01/02 10:19:56;;;;;;;29.63;19.23;;;;;;;9.80;94.53;63006.38;5030642;28;20229;-82
2023/01/02 10:22:33;;;;;;;28.60;18.63;;;;;;;10.03;92.31;63029.66;5035595;28;20230;-82
2023/01/02 10:25:08;;;;;;;26.92;18.13;;;;;;;10.18;91.46;63045.19;5032486;28;20274;-81
2023/01/02 10:27:41;;;;;;;27.85;17.92;;;;;;;10.21;90.84;63053.91;5031605;28;20222;-81
2023/01/02 10:30:19;;;;;;;32.30;18.90;;;;;;;10.35;89.33;63068.38;5033082;28;20191;-82
2023/01/02 10:32:52;;;;;;;26.75;17.77;;;;;;;10.47;88.69;63077.75;5051360;28;20189;-80
2023/01/02 10:35:33;;;;;;;27.95;17.92;;;;;;;10.55;88.70;63083.47;5054178;28;20241;-82
2023/01/02 10:38:06;;;;;;;30.25;16.48;;;;;;;10.31;87.46;63061.72;5034715;28;20206;-84
2023/01/02 10:40:33;;;;;;;26.50;17.08;;;;;;;10.59;86.90;63092.72;5036793;28;20237;-81
2023/01/02 10:43:02;;;;;;;27.73;16.13;;;;;;;10.41;87.18;63069.50;5033881;28;20235;-81
2023/01/02 10:45:30;;;;;;;25.98;15.85;;;;;;;10.19;87.86;63046.75;5030745;28;20207;-82
2023/01/02 10:47:57;;;;;;;25.63;16.73;;;;;;;10.28;88.45;63058.09;5018325;28;20214;-82
2023/01/02 10:50:28;;;;;;;23.63;15.60;;;;;;;10.26;88.04;63048.38;5011023;28;20214;-79
2023/01/02 10:53:06;;;;;;;26.38;17.80;;;;;;;10.39;87.91;63066.91;5013201;28;20238;-81
2023/01/02 10:55:34;;;;;;;24.85;17.58;;;;;;;10.50;87.51;63080.84;5030252;28;20244;-80
2023/01/02 10:58:06;;;;;;;31.13;20.08;;;;;;;10.57;86.52;63085.53;5011747;28;20199;-81
2023/01/02 11:00:36;;;;;;;27.73;18.80;;;;;;;10.64;86.18;63092.78;5011019;28;20195;-81
2023/01/02 11:03:07;;;;;;;24.23;17.67;;;;;;;10.78;84.91;63109.31;5014886;28;20203;-80
2023/01/02 11:09:10;;;;;;;33.38;20.63;;;;;;;10.88;84.31;63120.19;5738339;22;20220;-82
2023/01/02 11:11:48;;;;;;;37.67;22.13;;;;;;;10.98;84.88;63130.00;5092929;28;20299;-81
2023/01/02 11:14:16;;;;;;;42.58;27.60;;;;;;;10.88;84.63;63117.13;5089992;28;20203;-82
2023/01/02 11:16:45;;;;;;;40.33;26.10;;;;;;;10.96;84.28;63125.41;5071775;28;20217;-79
2023/01/02 11:19:22;;;;;;;47.00;28.52;;;;;;;10.91;84.86;63120.22;5069619;28;20239;-81
2023/01/02 11:21:52;;;;;;;44.40;25.92;;;;;;;10.88;84.50;63119.66;5082442;28;20287;-81
2023/01/02 11:24:25;;;;;;;44.83;27.50;;;;;;;11.03;84.56;63135.72;5093454;28;20205;-81
2023/01/02 11:26:54;;;;;;;42.22;27.30;;;;;;;11.14;84.79;63151.69;5091765;28;20251;-81
2023/01/02 11:29:28;;;;;;;46.97;28.58;;;;;;;11.21;83.35;63154.34;5090225;28;20264;-82
2023/01/02 11:31:57;;;;;;;42.70;27.58;;;;;;;11.14;83.44;63146.59;5088449;28;20524;-80
2023/01/02 11:34:32;;;;;;;46.33;28.75;;;;;;;11.05;83.17;63135.22;5091089;28;20623;-80
2023/01/02 11:37:05;;;;;;;51.40;29.70;;;;;;;11.02;84.09;63136.72;5093283;28;20419;-80
2023/01/02 11:39:51;;;;;;;48.63;27.70;;;;;;;11.11;83.89;63140.94;5093123;28;20200;-81
2023/01/02 11:45:15;;;;;;;40.00;26.85;;;;;;;10.98;84.56;63130.00;5093867;28;20179;-81